Time;durP1;ratioP1;P1;durP2;ratioP2;P2;SDS_P1;SDS_P2;PMS_P1;PMS_P2;Temp;Humidity;BMP_temperature;BMP_pressure;BME280_temperature;BME280_humidity;BME280_pressure;Samples;Min_cycle;Max_cycle;Signal;HPM_P1;HPM_P2
2023/04/16 00:01:55;;;;;;;16.03;10.13;;;4.60;99.90;4.80;93962.00;;;;7398455;19;20144;-80
2023/04/16 00:04:42;;;;;;;11.67;9.00;;;4.60;99.90;4.80;93968.00;;;;7398846;19;20148;-82
2023/04/16 00:07:09;;;;;;;11.37;7.87;;;4.60;99.90;4.70;93963.00;;;;7401732;19;20129;-81
2023/04/16 00:09:45;;;;;;;14.97;9.80;;;4.60;99.90;4.70;93924.00;;;;7398653;19;20144;-81
2023/04/16 00:12:12;;;;;;;15.13;9.23;;;4.60;99.90;4.80;93931.00;;;;7398264;19;20580;-81
2023/04/16 00:14:41;;;;;;;15.00;10.03;;;4.60;99.90;4.90;93963.00;;;;7399985;19;20133;-80
2023/04/16 00:17:14;;;;;;;17.07;10.17;;;4.60;99.90;4.70;93958.00;;;;7395659;19;20143;-80
2023/04/16 00:19:49;;;;;;;13.50;8.90;;;4.60;99.90;4.70;93952.00;;;;7401415;19;20139;-82
2023/04/16 00:22:24;;;;;;;13.97;8.93;;;4.60;99.90;4.70;93952.00;;;;7400341;19;20132;-80
2023/04/16 00:24:57;;;;;;;14.40;9.37;;;4.60;99.90;4.80;93950.00;;;;7399038;19;20151;-81
2023/04/16 00:27:31;;;;;;;14.57;9.23;;;4.60;99.90;4.80;93973.00;;;;7398728;19;20136;-81
2023/04/16 00:29:58;;;;;;;12.50;8.80;;;4.60;99.90;4.70;93950.00;;;;7400595;19;20590;-82
2023/04/16 00:32:32;;;;;;;13.20;9.23;;;4.60;99.90;4.70;93965.00;;;;7399362;19;20137;-80
2023/04/16 00:35:07;;;;;;;12.67;7.97;;;4.60;99.90;4.70;93974.00;;;;7397939;19;20526;-82
2023/04/16 00:37:40;;;;;;;12.67;8.23;;;4.60;99.90;4.80;93968.00;;;;7398810;19;20158;-82
2023/04/16 00:40:14;;;;;;;10.17;7.53;;;4.60;99.90;4.80;93966.00;;;;7397307;19;20148;-82
2023/04/16 00:42:41;;;;;;;10.73;7.53;;;4.60;99.90;4.80;93919.00;;;;7397664;19;20160;-79
2023/04/16 00:45:15;;;;;;;11.47;7.90;;;4.60;99.90;4.90;93960.00;;;;7398946;19;20128;-79
2023/04/16 00:47:49;;;;;;;14.17;8.40;;;4.60;99.90;4.90;93934.00;;;;7398094;19;20140;-79
2023/04/16 00:50:18;;;;;;;11.50;7.17;;;4.60;99.90;4.90;93966.00;;;;7397738;19;20202;-80
2023/04/16 00:52:52;;;;;;;10.90;6.97;;;4.60;99.90;4.80;93950.00;;;;7395529;19;20139;-80
2023/04/16 00:55:26;;;;;;;9.10;6.73;;;4.60;99.90;4.80;93951.00;;;;7396986;19;20615;-80
2023/04/16 00:57:53;;;;;;;7.60;5.83;;;4.60;99.90;4.80;93944.00;;;;7399047;19;20161;-82
2023/04/16 01:00:28;;;;;;;6.97;5.20;;;4.60;99.90;4.90;93964.00;;;;7397734;19;20163;-82
2023/04/16 01:02:55;;;;;;;5.33;4.20;;;4.60;99.90;4.80;93978.00;;;;7395104;19;20180;-82
2023/04/16 01:05:36;;;;;;;6.37;4.50;;;4.60;99.90;4.80;93948.00;;;;7393072;19;20170;-80
2023/04/16 01:08:03;;;;;;;5.83;4.23;;;4.60;99.90;4.80;93986.00;;;;7398399;19;20129;-81
2023/04/16 01:10:37;;;;;;;7.13;4.70;;;4.60;99.90;4.90;93948.00;;;;7397177;19;20152;-81
2023/04/16 01:13:04;;;;;;;6.17;4.40;;;4.60;99.90;4.80;93963.00;;;;7395626;19;20140;-83
2023/04/16 01:15:38;;;;;;;7.17;4.90;;;4.60;99.90;4.80;93953.00;;;;7395579;19;20538;-82
2023/04/16 01:18:19;;;;;;;6.20;4.50;;;4.60;99.90;4.70;93979.00;;;;7397322;19;20136;-80
2023/04/16 01:20:53;;;;;;;5.83;4.17;;;4.60;99.90;4.80;93982.00;;;;7397146;19;20472;-80
2023/04/16 01:23:21;;;;;;;5.63;4.07;;;4.60;99.90;4.80;93973.00;;;;7396795;19;20571;-80
2023/04/16 01:25:54;;;;;;;5.57;4.00;;;4.60;99.90;4.80;93949.00;;;;7395225;19;20153;-80
2023/04/16 01:28:29;;;;;;;4.80;3.57;;;4.60;99.90;4.70;93972.00;;;;7396461;19;20156;-80
2023/04/16 01:31:03;;;;;;;5.37;3.40;;;4.60;99.90;4.80;93974.00;;;;7396962;19;20521;-79
2023/04/16 01:33:37;;;;;;;4.67;3.40;;;4.60;99.90;4.80;93972.00;;;;7390388;19;20636;-80
2023/04/16 01:36:11;;;;;;;3.73;3.33;;;4.60;99.90;4.80;93944.00;;;;7394053;19;20583;-79
2023/04/16 01:38:46;;;;;;;4.67;3.53;;;4.60;99.90;4.90;93975.00;;;;7397347;19;20491;-79
2023/04/16 01:41:12;;;;;;;5.50;3.60;;;4.60;99.90;4.90;93980.00;;;;7398076;19;20225;-80
2023/04/16 01:43:46;;;;;;;4.07;3.50;;;4.60;99.90;4.80;93986.00;;;;7396559;19;20639;-79
2023/04/16 01:46:31;;;;;;;4.83;3.07;;;4.70;99.90;4.90;93971.00;;;;7398473;19;20137;-81
2023/04/16 01:48:58;;;;;;;3.60;2.60;;;4.60;99.90;4.80;93983.00;;;;7395999;19;20150;-79
2023/04/16 01:51:32;;;;;;;3.73;2.60;;;4.60;99.90;4.80;93969.00;;;;7398109;19;20571;-80
2023/04/16 01:54:00;;;;;;;2.97;2.40;;;4.60;99.90;4.80;93998.00;;;;7397497;19;20607;-80
2023/04/16 01:56:33;;;;;;;3.43;2.77;;;4.70;99.90;4.80;93970.00;;;;7398089;19;20221;-80
2023/04/16 01:59:08;;;;;;;4.60;3.47;;;4.70;99.90;4.90;93989.00;;;;7396579;19;20607;-80
2023/04/16 02:01:36;;;;;;;4.93;3.30;;;4.60;99.90;4.80;93977.00;;;;7396999;19;20141;-79
2023/04/16 02:04:18;;;;;;;6.17;4.13;;;4.60;99.90;4.80;93973.00;;;;7394215;19;20168;-81
2023/04/16 02:06:59;;;;;;;6.87;4.73;;;4.60;99.90;4.80;93962.00;;;;7392199;19;20129;-81
2023/04/16 02:09:26;;;;;;;6.10;4.10;;;4.60;99.90;4.80;93992.00;;;;7395537;19;20524;-80
2023/04/16 02:12:02;;;;;;;9.13;5.70;;;4.60;99.90;4.90;93982.00;;;;7396595;19;20187;-80
2023/04/16 02:14:30;;;;;;;9.27;6.33;;;4.60;99.90;4.80;93979.00;;;;7396977;19;20139;-80
2023/04/16 02:17:00;;;;;;;7.00;5.57;;;4.60;99.90;4.70;93964.00;;;;7395753;19;20133;-80
2023/04/16 02:19:33;;;;;;;7.63;5.67;;;4.60;99.90;4.80;94004.00;;;;7397201;19;20621;-80
2023/04/16 02:22:01;;;;;;;9.13;5.83;;;4.60;99.90;4.90;93946.00;;;;7397941;19;20129;-81
2023/04/16 02:24:36;;;;;;;8.33;5.50;;;4.60;99.90;4.90;93963.00;;;;7397695;19;20145;-81
2023/04/16 02:27:03;;;;;;;9.20;6.17;;;4.60;99.90;4.80;94005.00;;;;7396778;19;20133;-80
2023/04/16 02:29:37;;;;;;;8.27;5.57;;;4.60;99.90;4.60;94002.00;;;;7395178;19;20133;-82
2023/04/16 02:32:05;;;;;;;11.47;6.87;;;4.60;99.90;4.70;93978.00;;;;7395402;19;20171;-80
2023/04/16 02:34:39;;;;;;;10.73;6.57;;;4.60;99.90;4.80;93987.00;;;;7394997;19;20619;-81
2023/04/16 02:37:14;;;;;;;10.27;7.13;;;4.60;99.90;4.70;93982.00;;;;7396245;19;20585;-81
2023/04/16 02:39:48;;;;;;;11.70;7.23;;;4.60;99.90;4.60;93990.00;;;;7397325;19;20132;-81
2023/04/16 02:42:23;;;;;;;10.07;7.17;;;4.60;99.90;4.70;93992.00;;;;7402125;19;20644;-81
2023/04/16 02:44:50;;;;;;;10.00;7.10;;;4.60;99.90;4.70;93989.00;;;;7398779;19;20600;-81
2023/04/16 02:47:24;;;;;;;13.80;8.17;;;4.60;99.90;4.80;94004.00;;;;7404042;19;20129;-81
2023/04/16 02:49:57;;;;;;;12.83;8.17;;;4.60;99.90;4.60;93994.00;;;;7403876;19;20135;-80
2023/04/16 02:52:24;;;;;;;14.13;8.80;;;4.60;99.90;4.80;93981.00;;;;7400865;19;20200;-80
2023/04/16 02:54:59;;;;;;;15.10;9.87;;;4.60;99.90;4.90;93997.00;;;;7402038;19;20153;-80
2023/04/16 02:57:26;;;;;;;18.97;9.60;;;4.50;99.90;4.80;93983.00;;;;7403610;19;20133;-81
2023/04/16 02:59:59;;;;;;;16.20;9.63;;;4.60;99.90;4.80;94014.00;;;;7402543;19;20133;-81
2023/04/16 03:02:27;;;;;;;19.10;10.80;;;4.60;99.90;4.70;93993.00;;;;7400050;19;20197;-81
2023/04/16 03:05:01;;;;;;;20.90;11.13;;;4.60;99.90;4.70;93993.00;;;;7399225;19;20184;-78
2023/04/16 03:07:37;;;;;;;18.17;11.47;;;4.60;99.90;4.80;93995.00;;;;7402536;19;20152;-80
2023/04/16 03:10:06;;;;;;;14.83;9.03;;;4.60;99.90;4.70;94004.00;;;;7402026;19;20155;-80
2023/04/16 03:12:40;;;;;;;18.13;10.67;;;4.60;99.90;4.70;93983.00;;;;7402513;19;20591;-79
2023/04/16 03:15:14;;;;;;;17.17;9.87;;;4.60;99.90;4.80;93988.00;;;;7403227;19;20467;-80
2023/04/16 03:17:49;;;;;;;16.77;10.47;;;4.60;99.90;4.70;93988.00;;;;7402941;19;20144;-80
2023/04/16 03:20:16;;;;;;;15.30;9.60;;;4.60;99.90;4.90;93990.00;;;;7401043;19;20152;-80
2023/04/16 03:22:51;;;;;;;15.87;10.00;;;4.60;99.90;4.90;94012.00;;;;7402667;19;20133;-80
2023/04/16 03:25:18;;;;;;;18.30;9.97;;;4.60;99.90;4.80;94004.00;;;;7401446;19;20145;-80
2023/04/16 03:27:52;;;;;;;19.00;11.30;;;4.60;99.90;4.80;93992.00;;;;7401332;19;20184;-80
2023/04/16 03:30:26;;;;;;;18.73;10.87;;;4.60;99.90;4.80;94015.00;;;;7401207;19;20476;-79
2023/04/16 03:33:00;;;;;;;19.80;12.07;;;4.60;99.90;4.80;94000.00;;;;7396982;19;20132;-79
2023/04/16 03:35:27;;;;;;;15.90;10.53;;;4.60;99.90;4.80;94004.00;;;;7400316;19;20147;-79
2023/04/16 03:38:01;;;;;;;13.47;8.47;;;4.60;99.90;4.70;94016.00;;;;7400174;19;20144;-79
2023/04/16 03:40:28;;;;;;;14.73;9.40;;;4.60;99.90;4.70;93988.00;;;;7400806;19;20277;-79
2023/04/16 03:43:02;;;;;;;17.17;9.53;;;4.60;99.90;4.60;94004.00;;;;7401184;19;20137;-79
2023/04/16 03:45:29;;;;;;;15.57;8.83;;;4.60;99.90;4.70;94027.00;;;;7401226;19;20160;-79
2023/04/16 03:48:03;;;;;;;13.40;8.20;;;4.60;99.90;4.70;94032.00;;;;7400142;19;20161;-79
2023/04/16 03:50:37;;;;;;;14.53;8.33;;;4.60;99.90;4.80;94030.00;;;;7399167;19;20523;-80
2023/04/16 03:53:11;;;;;;;11.67;7.50;;;4.60;99.90;4.70;93982.00;;;;7399004;19;20129;-80
2023/04/16 03:55:40;;;;;;;13.83;7.57;;;4.60;99.90;4.80;94018.00;;;;7397733;19;20505;-79
2023/04/16 03:58:13;;;;;;;13.37;7.83;;;4.60;99.90;4.70;94018.00;;;;7400245;19;20170;-79
2023/04/16 04:00:42;;;;;;;12.57;7.90;;;4.60;99.90;4.70;94030.00;;;;7399524;19;20145;-79
2023/04/16 04:03:16;;;;;;;12.63;7.50;;;4.60;99.90;4.70;94002.00;;;;7398487;19;20176;-80
2023/04/16 04:05:51;;;;;;;14.80;9.07;;;4.60;99.90;4.70;94003.00;;;;7400795;19;20145;-79
2023/04/16 04:08:25;;;;;;;14.03;8.90;;;4.60;99.90;4.70;94011.00;;;;7401072;19;20149;-79
2023/04/16 04:10:58;;;;;;;18.97;8.70;;;4.60;99.90;4.90;94011.00;;;;7399813;19;20527;-79
2023/04/16 04:13:32;;;;;;;16.53;9.50;;;4.50;99.90;4.70;94038.00;;;;7397966;19;20170;-79
2023/04/16 04:16:06;;;;;;;12.90;8.23;;;4.60;99.90;4.90;94020.00;;;;7399183;19;20470;-79
2023/04/16 04:18:40;;;;;;;16.33;8.83;;;4.60;99.90;4.80;94043.00;;;;7399721;19;20141;-79
2023/04/16 04:21:10;;;;;;;15.63;9.57;;;4.60;99.90;4.80;94017.00;;;;7399032;19;20599;-81
2023/04/16 04:23:43;;;;;;;14.60;8.43;;;4.60;99.90;4.80;94019.00;;;;7398622;19;20151;-80
2023/04/16 04:26:17;;;;;;;18.07;10.03;;;4.60;99.90;4.80;93992.00;;;;7398366;19;20157;-81
2023/04/16 04:28:51;;;;;;;23.53;11.33;;;4.60;99.90;4.80;94049.00;;;;7401174;19;20128;-80
2023/04/16 04:31:19;;;;;;;22.77;11.80;;;4.50;99.90;4.80;94029.00;;;;7398899;19;20154;-79
2023/04/16 04:33:52;;;;;;;18.63;11.07;;;4.50;99.90;4.70;94049.00;;;;7393809;19;20208;-79
2023/04/16 04:36:19;;;;;;;157.27;18.63;;;4.60;99.90;4.60;94035.00;;;;7398744;19;20157;-79
2023/04/16 04:38:53;;;;;;;282.67;22.57;;;4.60;99.90;4.70;94054.00;;;;7399409;19;20627;-79
2023/04/16 04:41:27;;;;;;;226.20;21.47;;;4.60;99.90;4.70;94051.00;;;;7398935;19;20148;-80
2023/04/16 04:43:54;;;;;;;239.67;22.87;;;4.60;99.90;4.70;94036.00;;;;7398606;19;20615;-80
2023/04/16 04:46:28;;;;;;;342.60;28.73;;;4.60;99.90;4.60;94044.00;;;;7398070;19;20612;-80
2023/04/16 04:49:02;;;;;;;72.40;14.27;;;4.60;99.90;4.70;94062.00;;;;7398617;19;20631;-80
2023/04/16 04:51:37;;;;;;;111.83;17.80;;;4.60;99.90;4.70;94047.00;;;;7400237;19;20133;-79
2023/04/16 04:54:10;;;;;;;111.97;16.00;;;4.60;99.90;4.70;94029.00;;;;7387824;19;20202;-79
2023/04/16 04:56:45;;;;;;;122.27;16.33;;;4.60;99.90;4.70;94052.00;;;;7400420;19;20117;-79
2023/04/16 04:59:20;;;;;;;52.53;14.27;;;4.60;99.90;4.80;94020.00;;;;7399474;19;20129;-80
2023/04/16 05:01:54;;;;;;;64.43;14.57;;;4.50;99.90;4.80;94080.00;;;;7394063;19;20152;-80
2023/04/16 05:04:35;;;;;;;42.83;12.63;;;4.60;99.90;4.80;94082.00;;;;7395923;19;20149;-79
2023/04/16 05:07:16;;;;;;;96.03;14.03;;;4.60;99.90;4.70;94065.00;;;;7396104;19;20192;-79
2023/04/16 05:09:43;;;;;;;138.83;17.37;;;4.60;99.90;4.80;94060.00;;;;7398293;19;20177;-80
2023/04/16 05:12:16;;;;;;;64.40;14.27;;;4.60;99.90;4.80;94075.00;;;;7396051;19;20485;-80
2023/04/16 05:14:50;;;;;;;49.73;14.23;;;4.60;99.90;4.90;94093.00;;;;7397496;19;20143;-81
2023/04/16 05:17:24;;;;;;;28.80;12.00;;;4.60;99.90;4.80;94084.00;;;;7396743;19;20640;-79
2023/04/16 05:19:59;;;;;;;67.03;14.57;;;4.50;99.90;4.70;94095.00;;;;7397273;19;20132;-80
2023/04/16 05:22:34;;;;;;;82.77;15.37;;;4.50;99.90;4.80;94055.00;;;;7397543;19;20155;-81
2023/04/16 05:25:16;;;;;;;167.80;18.43;;;4.50;99.90;4.70;94102.00;;;;7397348;19;20623;-80
2023/04/16 05:27:43;;;;;;;30.97;13.73;;;4.50;99.90;4.70;94060.00;;;;7396932;19;20471;-80
2023/04/16 05:30:16;;;;;;;72.50;15.83;;;4.60;99.90;4.90;94109.00;;;;7397463;19;20152;-80
2023/04/16 05:32:50;;;;;;;33.93;13.10;;;4.50;99.90;4.80;94110.00;;;;7397122;19;20150;-80
2023/04/16 05:35:24;;;;;;;60.70;15.70;;;4.50;99.90;4.80;94074.00;;;;7396798;19;20167;-80
2023/04/16 05:37:58;;;;;;;91.37;16.50;;;4.50;99.90;4.70;94082.00;;;;7397593;19;20145;-80
2023/04/16 05:40:32;;;;;;;113.97;17.40;;;4.50;99.90;4.80;94098.00;;;;7397952;19;20140;-80
2023/04/16 05:43:06;;;;;;;98.63;15.63;;;4.50;99.90;4.80;94114.00;;;;7394584;19;20636;-86
2023/04/16 05:45:40;;;;;;;81.37;16.03;;;4.50;99.90;4.70;94101.00;;;;7392271;19;20133;-86
2023/04/16 05:48:14;;;;;;;112.53;18.73;;;4.50;99.90;4.70;94116.00;;;;7397750;19;20570;-86
2023/04/16 05:50:49;;;;;;;90.07;15.90;;;4.50;99.90;4.70;94116.00;;;;7368392;19;20653;-85
2023/04/16 05:53:22;;;;;;;206.07;21.80;;;4.50;99.90;4.90;94108.00;;;;7379485;19;20248;-85
2023/04/16 05:55:56;;;;;;;454.03;30.93;;;4.50;99.90;4.80;94110.00;;;;7380238;19;20638;-86
2023/04/16 05:58:24;;;;;;;321.83;24.20;;;4.50;99.90;4.70;94129.00;;;;7379755;19;20124;-88
2023/04/16 06:00:57;;;;;;;375.53;28.23;;;4.50;99.90;4.70;94119.00;;;;7381062;19;20576;-87
2023/04/16 06:03:38;;;;;;;812.43;45.97;;;4.50;99.90;4.70;94132.00;;;;7382049;19;20271;-86
2023/04/16 06:06:12;;;;;;;597.27;39.23;;;4.50;99.90;4.60;94148.00;;;;7378300;19;20617;-86
2023/04/16 06:08:45;;;;;;;566.70;33.27;;;4.60;99.90;4.60;94124.00;;;;7381095;19;20145;-83
2023/04/16 06:11:12;;;;;;;689.27;37.23;;;4.50;99.90;4.60;94146.00;;;;7381150;19;20169;-86
2023/04/16 06:13:46;;;;;;;827.07;48.33;;;4.50;99.90;4.60;94131.00;;;;7379313;19;20231;-87
2023/04/16 06:16:20;;;;;;;784.93;50.27;;;4.50;99.90;4.70;94128.00;;;;7390714;19;20457;-87
2023/04/16 06:18:48;;;;;;;852.40;47.03;;;4.50;99.90;4.80;94148.00;;;;7388953;19;20148;-87
2023/04/16 06:21:41;;;;;;;709.17;47.37;;;4.50;99.90;4.80;94153.00;;;;7391027;19;20165;-88
2023/04/16 06:24:10;;;;;;;684.33;46.13;;;4.50;99.90;4.70;94134.00;;;;7391258;19;20148;-87
2023/04/16 06:26:44;;;;;;;664.00;41.80;;;4.50;99.90;4.80;94149.00;;;;7392961;19;20128;-87
2023/04/16 06:29:18;;;;;;;544.47;30.77;;;4.50;99.90;4.60;94140.00;;;;7389195;19;20173;-86
2023/04/16 06:33:06;;;;;;;429.03;30.73;;;4.50;99.90;4.70;94128.00;;;;6830061;19;11520527;-89
2023/04/16 06:35:40;;;;;;;669.60;49.87;;;4.50;99.90;4.80;94126.00;;;;7417717;19;20151;-89
2023/04/16 06:38:10;;;;;;;859.20;54.17;;;4.50;99.90;4.80;94149.00;;;;7418810;19;20208;-89
2023/04/16 06:40:44;;;;;;;806.53;60.27;;;4.40;99.90;4.70;94146.00;;;;7417141;19;20672;-88
2023/04/16 06:43:14;;;;;;;534.43;39.87;;;4.40;99.90;5.00;94169.00;;;;7417631;19;20120;-89
2023/04/16 06:45:49;;;;;;;1103.43;54.37;;;4.40;99.90;5.00;94152.00;;;;7416459;19;20155;-88
2023/04/16 06:48:18;;;;;;;874.67;50.70;;;4.40;1.00;4.70;94142.00;;;;7415961;19;20148;-87
2023/04/16 06:50:45;;;;;;;641.33;39.03;;;4.50;1.00;4.70;94168.00;;;;7415048;19;20614;-87
2023/04/16 06:53:19;;;;;;;720.47;38.80;;;4.50;1.00;4.60;94162.00;;;;7415167;19;20136;-87
2023/04/16 06:55:46;;;;;;;546.77;39.60;;;4.50;1.00;4.60;94162.00;;;;7410277;19;20180;-86
2023/04/16 06:58:21;;;;;;;526.30;36.73;;;4.50;1.00;4.50;94168.00;;;;7414683;19;20139;-87
2023/04/16 07:00:55;;;;;;;453.07;30.90;;;4.40;1.00;4.50;94163.00;;;;7415091;19;20127;-85
2023/04/16 07:03:22;;;;;;;723.80;47.73;;;4.40;1.00;4.60;94167.00;;;;7413874;19;20176;-86
2023/04/16 07:05:58;;;;;;;697.97;46.07;;;4.40;1.00;4.50;94167.00;;;;7414833;19;20147;-86
2023/04/16 07:08:25;;;;;;;749.50;44.57;;;4.40;1.00;4.70;94138.00;;;;7414170;19;20158;-82
2023/04/16 07:10:59;;;;;;;647.47;43.40;;;4.40;1.00;4.50;94179.00;;;;7413028;19;20149;-85
2023/04/16 07:13:35;;;;;;;473.20;33.07;;;4.40;1.00;4.50;94161.00;;;;7414451;19;20144;-85
2023/04/16 07:16:09;;;;;;;433.60;34.63;;;4.40;1.00;4.40;94180.00;;;;7413603;19;20718;-82
2023/04/16 07:18:44;;;;;;;741.30;45.67;;;4.40;1.00;4.50;94173.00;;;;7413635;19;20128;-83
2023/04/16 07:21:18;;;;;;;352.73;26.73;;;4.40;1.00;4.60;94167.00;;;;7412386;19;20132;-83
2023/04/16 07:23:52;;;;;;;309.50;24.23;;;4.40;1.00;4.50;94162.00;;;;7412097;19;20148;-82
2023/04/16 07:26:27;;;;;;;540.33;37.77;;;4.40;1.00;4.50;94181.00;;;;7413280;19;20189;-83
2023/04/16 07:29:08;;;;;;;352.67;29.77;;;4.40;1.00;4.60;94188.00;;;;7413575;19;20172;-83
2023/04/16 07:31:54;;;;;;;587.17;48.27;;;4.40;1.00;4.70;94176.00;;;;7410805;19;20236;-82
2023/04/16 07:34:34;;;;;;;300.57;31.63;;;4.40;1.00;4.60;94169.00;;;;7412887;19;20157;-84
2023/04/16 07:37:08;;;;;;;529.40;37.47;;;4.50;1.00;4.50;94182.00;;;;7413308;19;20635;-82
2023/04/16 07:39:35;;;;;;;546.27;39.67;;;4.50;1.00;4.60;94177.00;;;;7413376;19;20192;-83
2023/04/16 07:42:09;;;;;;;670.77;43.47;;;4.50;1.00;4.70;94147.00;;;;7410328;19;20201;-83
2023/04/16 07:44:45;;;;;;;390.70;32.03;;;4.50;1.00;4.70;94187.00;;;;7384317;19;20148;-85
2023/04/16 07:47:20;;;;;;;458.80;30.80;;;4.50;1.00;4.90;94195.00;;;;7385431;19;20155;-83
2023/04/16 07:49:53;;;;;;;215.90;22.60;;;4.50;1.00;4.80;94171.00;;;;7379799;19;20129;-84
2023/04/16 07:52:28;;;;;;;287.03;29.77;;;4.50;1.00;4.80;94191.00;;;;7381500;19;20134;-83
2023/04/16 07:55:01;;;;;;;59.63;18.90;;;4.50;1.00;4.80;94188.00;;;;7381823;19;20493;-84
2023/04/16 07:57:29;;;;;;;80.77;19.40;;;4.60;1.00;4.80;94179.00;;;;7382853;19;20881;-85
2023/04/16 08:00:04;;;;;;;58.60;19.17;;;4.50;1.00;4.80;94156.00;;;;7383114;19;20233;-89
2023/04/16 08:02:32;;;;;;;42.37;18.83;;;4.50;1.00;4.60;94192.00;;;;7382507;19;20164;-83
2023/04/16 08:05:06;;;;;;;42.57;19.10;;;4.60;1.00;4.70;94215.00;;;;7381712;19;20158;-86
2023/04/16 08:07:35;;;;;;;35.57;18.70;;;4.50;1.00;4.60;94225.00;;;;7381993;19;20481;-85
2023/04/16 08:10:09;;;;;;;38.40;18.43;;;4.50;1.00;4.70;94180.00;;;;7385737;19;20118;-86
2023/04/16 08:12:43;;;;;;;36.20;17.87;;;4.60;1.00;4.80;94209.00;;;;7383286;19;20148;-84
2023/04/16 08:15:17;;;;;;;37.53;18.50;;;4.60;1.00;4.60;94208.00;;;;7380182;19;20145;-85
2023/04/16 08:17:51;;;;;;;38.20;19.07;;;4.70;99.90;4.80;94171.00;;;;7380973;19;20549;-82
2023/04/16 08:20:27;;;;;;;38.90;19.23;;;4.70;99.90;4.90;94183.00;;;;7381254;19;20152;-83
2023/04/16 08:22:54;;;;;;;38.90;19.57;;;4.80;99.90;5.00;94171.00;;;;7380249;19;20152;-84
2023/04/16 08:25:28;;;;;;;38.87;18.53;;;4.90;99.90;5.30;94216.00;;;;7381390;19;20132;-85
2023/04/16 08:28:04;;;;;;;38.20;20.30;;;5.00;99.90;5.20;94226.00;;;;7383272;19;20463;-85
2023/04/16 08:30:39;;;;;;;32.30;17.87;;;5.00;99.90;5.20;94207.00;;;;7376475;19;20530;-86
2023/04/16 08:33:20;;;;;;;33.53;17.00;;;5.10;99.90;5.00;94211.00;;;;7385257;19;20129;-87
2023/04/16 08:35:54;;;;;;;34.83;19.07;;;5.00;50.10;5.20;94155.00;;;;7382898;19;20220;-87
2023/04/16 08:38:21;;;;;;;30.33;18.17;;;5.00;1.00;5.10;94230.00;;;;7384842;19;20647;-86
2023/04/16 08:41:04;;;;;;;35.43;18.33;;;5.00;1.00;5.10;94207.00;;;;7383938;19;20609;-86
2023/04/16 08:43:43;;;;;;;32.40;18.60;;;5.10;1.00;5.10;94240.00;;;;7384018;19;20161;-86
2023/04/16 08:46:11;;;;;;;28.20;16.73;;;5.00;1.00;5.00;94237.00;;;;7397169;19;20196;-86
2023/04/16 08:48:48;;;;;;;27.57;16.97;;;5.10;1.00;5.00;94229.00;;;;7383424;19;20133;-86
2023/04/16 08:51:18;;;;;;;40.83;17.47;;;5.10;1.00;5.10;94225.00;;;;7382132;19;20501;-86
2023/04/16 08:54:10;;;;;;;34.07;17.27;;;5.10;1.00;5.30;94241.00;;;;7383430;19;20136;-86
2023/04/16 08:56:44;;;;;;;26.80;15.73;;;5.20;1.00;5.30;94248.00;;;;7383795;19;20152;-86
2023/04/16 08:59:21;;;;;;;29.33;17.00;;;5.20;99.90;5.40;94232.00;;;;7382938;19;20162;-86
2023/04/16 09:01:58;;;;;;;35.77;16.63;;;5.20;99.90;5.20;94248.00;;;;7380655;19;20168;-85
2023/04/16 09:04:27;;;;;;;30.60;16.80;;;5.30;99.90;5.00;94245.00;;;;7380398;19;20129;-84
2023/04/16 09:07:04;;;;;;;25.07;15.63;;;5.30;99.90;5.00;94221.00;;;;7381660;19;20152;-83
2023/04/16 09:09:32;;;;;;;28.67;16.33;;;5.20;99.90;5.10;94249.00;;;;7380881;19;20153;-85
2023/04/16 09:12:07;;;;;;;29.03;16.80;;;5.20;99.90;5.00;94227.00;;;;7379049;19;20128;-83
2023/04/16 09:14:35;;;;;;;40.27;17.47;;;5.20;99.90;5.20;94220.00;;;;7378325;19;20156;-85
2023/04/16 09:17:08;;;;;;;27.73;16.87;;;5.20;99.90;5.50;94239.00;;;;7382962;19;20154;-85
2023/04/16 09:19:36;;;;;;;40.23;16.67;;;5.10;99.90;5.20;94236.00;;;;7380623;19;20136;-86
2023/04/16 09:22:12;;;;;;;47.53;16.77;;;5.20;99.90;5.10;94198.00;;;;7381315;19;20500;-85
2023/04/16 09:24:46;;;;;;;38.87;14.70;;;5.30;99.90;5.10;94249.00;;;;7380216;19;20148;-88
2023/04/16 09:27:24;;;;;;;78.43;17.77;;;5.30;99.90;5.20;94266.00;;;;7381439;19;20501;-86
2023/04/16 09:29:59;;;;;;;148.80;19.63;;;5.30;99.90;5.20;94269.00;;;;7380887;19;20477;-86
2023/04/16 09:32:39;;;;;;;32.00;15.17;;;5.30;99.90;5.50;94242.00;;;;7380231;19;20156;-86
2023/04/16 09:35:20;;;;;;;122.10;18.33;;;5.20;99.90;5.20;94256.00;;;;7379396;19;20173;-87
2023/04/16 09:37:57;;;;;;;42.43;15.57;;;5.20;99.90;5.20;94272.00;;;;7382767;19;20210;-88
2023/04/16 09:40:30;;;;;;;30.10;15.83;;;5.30;99.90;5.00;94238.00;;;;7382962;19;20124;-87
2023/04/16 09:42:59;;;;;;;32.40;14.77;;;5.30;99.90;5.20;94269.00;;;;7381532;19;20163;-88
2023/04/16 09:45:48;;;;;;;33.70;15.30;;;5.30;99.90;5.40;94272.00;;;;7380220;19;20173;-87
2023/04/16 09:48:32;;;;;;;39.50;16.13;;;5.30;99.90;5.40;94260.00;;;;7380778;19;20232;-86
2023/04/16 09:51:06;;;;;;;23.83;14.67;;;5.40;99.90;5.50;94277.00;;;;7380395;19;20198;-84
2023/04/16 09:53:34;;;;;;;25.10;15.47;;;5.30;99.90;5.10;94253.00;;;;7380392;19;20628;-87
2023/04/16 09:56:09;;;;;;;27.43;16.10;;;5.30;99.90;5.50;94263.00;;;;7379988;19;20154;-86
2023/04/16 09:58:43;;;;;;;39.07;15.77;;;5.30;99.90;5.60;94252.00;;;;7380047;19;20144;-87
2023/04/16 10:01:18;;;;;;;30.53;15.07;;;5.40;99.90;5.40;94265.00;;;;7378534;19;20149;-87
2023/04/16 10:03:57;;;;;;;60.53;17.17;;;5.40;99.90;5.50;94213.00;;;;7379498;19;20656;-87
2023/04/16 10:06:31;;;;;;;48.60;15.23;;;5.40;99.90;5.40;94266.00;;;;7376234;19;20136;-85
2023/04/16 10:08:58;;;;;;;34.40;14.20;;;5.40;99.90;5.40;94264.00;;;;7378797;19;20155;-86
2023/04/16 10:11:33;;;;;;;57.73;15.23;;;5.40;99.90;5.60;94279.00;;;;7378259;19;20148;-87
2023/04/16 10:14:08;;;;;;;43.43;15.83;;;5.40;99.90;5.30;94258.00;;;;7380259;19;20751;-87
2023/04/16 10:16:35;;;;;;;29.97;14.90;;;5.40;99.90;5.50;94262.00;;;;7368988;19;20137;-87
2023/04/16 10:19:09;;;;;;;23.40;15.13;;;5.40;99.90;5.30;94253.00;;;;7376884;19;20132;-85
2023/04/16 10:21:38;;;;;;;26.90;15.03;;;5.50;99.90;5.50;94287.00;;;;7378888;19;20140;-86
2023/04/16 10:24:07;;;;;;;24.47;15.37;;;5.50;99.90;5.40;94281.00;;;;7378140;19;20133;-87
2023/04/16 10:26:41;;;;;;;23.00;14.80;;;5.50;99.90;5.60;94243.00;;;;7377548;19;20152;-86
2023/04/16 10:29:15;;;;;;;27.33;14.93;;;5.50;99.90;5.80;94313.00;;;;7378873;19;20564;-87
2023/04/16 10:31:54;;;;;;;30.23;17.43;;;5.60;99.90;5.60;94255.00;;;;7378143;19;20666;-86
2023/04/16 10:34:36;;;;;;;27.10;17.33;;;5.60;99.90;5.70;94307.00;;;;7379679;19;20156;-87
2023/04/16 10:37:03;;;;;;;33.43;17.43;;;5.60;99.90;5.60;94283.00;;;;7379061;19;20129;-86
2023/04/16 10:39:37;;;;;;;22.17;15.80;;;5.50;99.90;5.50;94291.00;;;;7379841;19;20139;-87
2023/04/16 10:42:12;;;;;;;24.23;15.30;;;5.60;99.90;5.40;94246.00;;;;7376375;19;20152;-86
2023/04/16 10:44:40;;;;;;;24.13;15.77;;;5.60;99.90;5.50;94304.00;;;;7377212;19;20137;-86
2023/04/16 10:47:14;;;;;;;25.47;15.83;;;5.50;99.90;5.60;94277.00;;;;7376761;19;20148;-88
2023/04/16 10:49:48;;;;;;;29.70;15.73;;;5.50;99.90;5.60;94311.00;;;;7378727;19;20645;-87
2023/04/16 10:52:23;;;;;;;24.27;15.63;;;5.50;99.90;5.40;94282.00;;;;7379499;19;20604;-85
2023/04/16 10:54:52;;;;;;;31.10;14.77;;;5.50;99.90;5.20;94302.00;;;;7378249;19;20140;-85
2023/04/16 10:57:29;;;;;;;22.50;14.77;;;5.40;99.90;5.40;94276.00;;;;7377148;19;20144;-86
2023/04/16 10:59:58;;;;;;;22.20;14.53;;;5.40;99.90;5.50;94272.00;;;;7377782;19;20635;-85
2023/04/16 11:02:32;;;;;;;22.17;13.00;;;5.40;99.90;5.50;94306.00;;;;7379589;19;20156;-85
2023/04/16 11:05:06;;;;;;;22.00;13.23;;;5.40;99.90;5.60;94315.00;;;;7378902;19;20125;-85
2023/04/16 11:07:48;;;;;;;23.77;14.37;;;5.40;99.90;5.50;94304.00;;;;7379324;19;20145;-84
2023/04/16 11:10:16;;;;;;;23.07;13.47;;;5.40;99.90;5.40;94268.00;;;;7379175;19;20164;-86
2023/04/16 11:12:53;;;;;;;22.77;14.57;;;5.40;99.90;5.70;94302.00;;;;7382526;19;20229;-85
2023/04/16 11:15:29;;;;;;;22.17;14.03;;;5.40;99.90;5.70;94305.00;;;;7379141;19;20169;-86
2023/04/16 11:18:05;;;;;;;24.20;13.93;;;5.50;99.90;5.80;94297.00;;;;7379752;19;20476;-86
2023/04/16 11:20:33;;;;;;;22.57;14.40;;;5.50;99.90;5.60;94278.00;;;;7386341;19;20710;-86
2023/04/16 11:23:12;;;;;;;22.03;13.43;;;5.50;99.90;5.80;94266.00;;;;7385563;19;20208;-86
2023/04/16 11:25:45;;;;;;;20.43;13.03;;;5.50;99.90;5.60;94289.00;;;;7381937;19;20121;-85